sensor_id;sensor_type;location;lat;lon;timestamp;temperature;humidity
34153;DHT22;20426;48.372;10.888;2023-02-28T00:00:09;-0.70;99.90
34153;DHT22;20426;48.372;10.888;2023-02-28T00:00:40;-0.70;99.90
34153;DHT22;20426;48.372;10.888;2023-02-28T00:01:12;-0.70;99.90
34153;DHT22;20426;48.372;10.888;2023-02-28T00:01:44;-0.70;99.90
34153;DHT22;20426;48.372;10.888;2023-02-28T00:02:14;-0.70;99.90
34153;DHT22;20426;48.372;10.888;2023-02-28T00:02:48;-0.70;99.90
34153;DHT22;20426;48.372;10.888;2023-02-28T00:03:19;-0.70;99.90
34153;DHT22;20426;48.372;10.888;2023-02-28T00:03:49;-0.70;99.90
34153;DHT22;20426;48.372;10.888;2023-02-28T00:04:20;-0.70;99.90
34153;DHT22;20426;48.372;10.888;2023-02-28T00:04:51;-0.70;99.90
34153;DHT22;20426;48.372;10.888;2023-02-28T00:05:24;-0.70;99.90
34153;DHT22;20426;48.372;10.888;2023-02-28T00:05:55;-0.70;99.90
34153;DHT22;20426;48.372;10.888;2023-02-28T00:06:26;-0.70;99.90
34153;DHT22;20426;48.372;10.888;2023-02-28T00:06:57;-0.70;99.90
34153;DHT22;20426;48.372;10.888;2023-02-28T00:07:29;-0.70;99.90
34153;DHT22;20426;48.372;10.888;2023-02-28T00:08:00;-0.70;99.90
34153;DHT22;20426;48.372;10.888;2023-02-28T00:08:31;-0.70;99.90
34153;DHT22;20426;48.372;10.888;2023-02-28T00:09:02;-0.70;99.90
34153;DHT22;20426;48.372;10.888;2023-02-28T00:09:32;-0.70;99.90
34153;DHT22;20426;48.372;10.888;2023-02-28T00:10:08;-0.70;99.90
34153;DHT22;20426;48.372;10.888;2023-02-28T00:10:39;-0.70;99.90
34153;DHT22;20426;48.372;10.888;2023-02-28T00:11:12;-0.70;99.90
34153;DHT22;20426;48.372;10.888;2023-02-28T00:11:43;-0.60;99.90
34153;DHT22;20426;48.372;10.888;2023-02-28T00:12:14;-0.60;99.90
34153;DHT22;20426;48.372;10.888;2023-02-28T00:12:45;-0.70;99.90
34153;DHT22;20426;48.372;10.888;2023-02-28T00:13:15;-0.70;99.90
34153;DHT22;20426;48.372;10.888;2023-02-28T00:13:47;-0.70;99.90
34153;DHT22;20426;48.372;10.888;2023-02-28T00:14:18;-0.70;99.90
34153;DHT22;20426;48.372;10.888;2023-02-28T00:14:49;-0.70;99.90
34153;DHT22;20426;48.372;10.888;2023-02-28T00:15:20;-0.70;99.90
34153;DHT22;20426;48.372;10.888;2023-02-28T00:16:01;-0.70;99.90
34153;DHT22;20426;48.372;10.888;2023-02-28T00:16:32;-0.70;99.90
34153;DHT22;20426;48.372;10.888;2023-02-28T00:17:03;-0.70;99.90
34153;DHT22;20426;48.372;10.888;2023-02-28T00:17:33;-0.70;99.90
34153;DHT22;20426;48.372;10.888;2023-02-28T00:18:04;-0.70;99.90
34153;DHT22;20426;48.372;10.888;2023-02-28T00:18:35;-0.70;99.90
34153;DHT22;20426;48.372;10.888;2023-02-28T00:19:06;-0.70;99.90
34153;DHT22;20426;48.372;10.888;2023-02-28T00:19:36;-0.70;99.90
34153;DHT22;20426;48.372;10.888;2023-02-28T00:20:08;-0.70;99.90
34153;DHT22;20426;48.372;10.888;2023-02-28T00:20:40;-0.70;99.90
34153;DHT22;20426;48.372;10.888;2023-02-28T00:21:11;-0.70;99.90
34153;DHT22;20426;48.372;10.888;2023-02-28T00:21:41;-0.70;99.90
34153;DHT22;20426;48.372;10.888;2023-02-28T00:22:13;-0.70;99.90
34153;DHT22;20426;48.372;10.888;2023-02-28T00:22:50;-0.70;99.90
34153;DHT22;20426;48.372;10.888;2023-02-28T00:23:21;-0.70;99.90
34153;DHT22;20426;48.372;10.888;2023-02-28T00:23:52;-0.70;99.90
34153;DHT22;20426;48.372;10.888;2023-02-28T00:24:22;-0.70;99.90
34153;DHT22;20426;48.372;10.888;2023-02-28T00:24:53;-0.70;99.90
34153;DHT22;20426;48.372;10.888;2023-02-28T00:25:25;-0.70;99.90
34153;DHT22;20426;48.372;10.888;2023-02-28T00:25:56;-0.70;99.90
34153;DHT22;20426;48.372;10.888;2023-02-28T00:26:26;-0.70;99.90
34153;DHT22;20426;48.372;10.888;2023-02-28T00:26:57;-0.70;99.90
34153;DHT22;20426;48.372;10.888;2023-02-28T00:27:28;-0.70;99.90
34153;DHT22;20426;48.372;10.888;2023-02-28T00:27:59;-0.70;99.90
34153;DHT22;20426;48.372;10.888;2023-02-28T00:28:29;-0.70;99.90
34153;DHT22;20426;48.372;10.888;2023-02-28T00:29:00;-0.70;99.90
34153;DHT22;20426;48.372;10.888;2023-02-28T00:29:31;-0.70;99.90
34153;DHT22;20426;48.372;10.888;2023-02-28T00:30:02;-0.70;99.90
34153;DHT22;20426;48.372;10.888;2023-02-28T00:30:33;-0.70;99.90
34153;DHT22;20426;48.372;10.888;2023-02-28T00:31:03;-0.70;99.90
34153;DHT22;20426;48.372;10.888;2023-02-28T00:31:35;-0.70;99.90
34153;DHT22;20426;48.372;10.888;2023-02-28T00:32:06;-0.80;99.90
34153;DHT22;20426;48.372;10.888;2023-02-28T00:32:37;-0.80;99.90
34153;DHT22;20426;48.372;10.888;2023-02-28T00:33:08;-0.70;99.90
34153;DHT22;20426;48.372;10.888;2023-02-28T00:34:12;-0.70;99.90
34153;DHT22;20426;48.372;10.888;2023-02-28T00:34:43;-0.80;99.90
34153;DHT22;20426;48.372;10.888;2023-02-28T00:35:14;-0.80;99.90
34153;DHT22;20426;48.372;10.888;2023-02-28T00:35:44;-0.80;99.90
34153;DHT22;20426;48.372;10.888;2023-02-28T00:36:19;-0.80;99.90
34153;DHT22;20426;48.372;10.888;2023-02-28T00:36:49;-0.80;99.90
34153;DHT22;20426;48.372;10.888;2023-02-28T00:37:20;-0.80;99.90
34153;DHT22;20426;48.372;10.888;2023-02-28T00:37:51;-0.80;99.90
34153;DHT22;20426;48.372;10.888;2023-02-28T00:38:21;-0.80;99.90
34153;DHT22;20426;48.372;10.888;2023-02-28T00:38:52;-0.80;99.90
34153;DHT22;20426;48.372;10.888;2023-02-28T00:39:23;-0.90;99.90
34153;DHT22;20426;48.372;10.888;2023-02-28T00:39:53;-0.90;99.90
34153;DHT22;20426;48.372;10.888;2023-02-28T00:40:24;-0.80;99.90
34153;DHT22;20426;48.372;10.888;2023-02-28T00:40:55;-0.90;99.90
34153;DHT22;20426;48.372;10.888;2023-02-28T00:41:25;-0.90;99.90
34153;DHT22;20426;48.372;10.888;2023-02-28T00:41:56;-0.80;99.90
34153;DHT22;20426;48.372;10.888;2023-02-28T00:42:27;-0.80;99.90
34153;DHT22;20426;48.372;10.888;2023-02-28T00:42:58;-0.80;99.90
34153;DHT22;20426;48.372;10.888;2023-02-28T00:43:28;-0.80;99.90
34153;DHT22;20426;48.372;10.888;2023-02-28T00:43:59;-0.80;99.90
34153;DHT22;20426;48.372;10.888;2023-02-28T00:44:30;-0.80;99.90
34153;DHT22;20426;48.372;10.888;2023-02-28T00:45:02;-0.80;99.90
34153;DHT22;20426;48.372;10.888;2023-02-28T00:45:34;-0.90;99.90
34153;DHT22;20426;48.372;10.888;2023-02-28T00:46:05;-0.90;99.90
34153;DHT22;20426;48.372;10.888;2023-02-28T00:46:36;-0.80;99.90
34153;DHT22;20426;48.372;10.888;2023-02-28T00:47:07;-0.90;99.90
34153;DHT22;20426;48.372;10.888;2023-02-28T00:47:38;-0.90;99.90
34153;DHT22;20426;48.372;10.888;2023-02-28T00:48:08;-0.90;99.90
34153;DHT22;20426;48.372;10.888;2023-02-28T00:48:39;-0.90;99.90
34153;DHT22;20426;48.372;10.888;2023-02-28T00:49:10;-0.90;99.90
34153;DHT22;20426;48.372;10.888;2023-02-28T00:49:40;-0.90;99.90
34153;DHT22;20426;48.372;10.888;2023-02-28T00:50:11;-0.90;99.90
34153;DHT22;20426;48.372;10.888;2023-02-28T00:50:42;-0.90;99.90
34153;DHT22;20426;48.372;10.888;2023-02-28T00:51:13;-0.90;99.90
34153;DHT22;20426;48.372;10.888;2023-02-28T00:51:43;-0.90;99.90
34153;DHT22;20426;48.372;10.888;2023-02-28T00:52:14;-0.90;99.90
34153;DHT22;20426;48.372;10.888;2023-02-28T00:52:45;-1.00;99.90
34153;DHT22;20426;48.372;10.888;2023-02-28T00:53:16;-0.90;99.90
34153;DHT22;20426;48.372;10.888;2023-02-28T00:53:46;-0.90;99.90
34153;DHT22;20426;48.372;10.888;2023-02-28T00:54:18;-0.90;99.90
34153;DHT22;20426;48.372;10.888;2023-02-28T00:54:48;-1.00;99.90
34153;DHT22;20426;48.372;10.888;2023-02-28T00:55:19;-1.00;99.90
34153;DHT22;20426;48.372;10.888;2023-02-28T00:55:50;-1.00;99.90
34153;DHT22;20426;48.372;10.888;2023-02-28T00:56:21;-1.00;99.90
34153;DHT22;20426;48.372;10.888;2023-02-28T00:56:52;-1.00;99.90
34153;DHT22;20426;48.372;10.888;2023-02-28T00:57:22;-1.00;99.90
34153;DHT22;20426;48.372;10.888;2023-02-28T00:57:53;-1.00;99.90
34153;DHT22;20426;48.372;10.888;2023-02-28T00:58:24;-1.00;99.90
34153;DHT22;20426;48.372;10.888;2023-02-28T00:58:55;-1.10;99.90
34153;DHT22;20426;48.372;10.888;2023-02-28T00:59:25;-1.00;99.90
34153;DHT22;20426;48.372;10.888;2023-02-28T00:59:56;-1.00;99.90
34153;DHT22;20426;48.372;10.888;2023-02-28T01:00:27;-1.00;99.90
34153;DHT22;20426;48.372;10.888;2023-02-28T01:00:57;-1.10;99.90
34153;DHT22;20426;48.372;10.888;2023-02-28T01:01:28;-1.10;99.90
34153;DHT22;20426;48.372;10.888;2023-02-28T01:01:59;-1.10;99.90
34153;DHT22;20426;48.372;10.888;2023-02-28T01:02:29;-1.10;99.90
34153;DHT22;20426;48.372;10.888;2023-02-28T01:03:00;-1.10;99.90
34153;DHT22;20426;48.372;10.888;2023-02-28T01:03:31;-1.10;99.90
34153;DHT22;20426;48.372;10.888;2023-02-28T01:04:02;-1.10;99.90
34153;DHT22;20426;48.372;10.888;2023-02-28T01:04:33;-1.10;99.90
34153;DHT22;20426;48.372;10.888;2023-02-28T01:05:04;-1.10;99.90
34153;DHT22;20426;48.372;10.888;2023-02-28T01:05:35;-1.10;99.90
34153;DHT22;20426;48.372;10.888;2023-02-28T01:06:06;-1.10;99.90
34153;DHT22;20426;48.372;10.888;2023-02-28T01:06:37;-1.10;99.90
34153;DHT22;20426;48.372;10.888;2023-02-28T01:07:08;-1.10;99.90
34153;DHT22;20426;48.372;10.888;2023-02-28T01:07:39;-1.10;99.90
34153;DHT22;20426;48.372;10.888;2023-02-28T01:08:09;-1.00;99.90
34153;DHT22;20426;48.372;10.888;2023-02-28T01:08:40;-1.00;99.90
34153;DHT22;20426;48.372;10.888;2023-02-28T01:09:11;-1.00;99.90
34153;DHT22;20426;48.372;10.888;2023-02-28T01:09:42;-1.10;99.90
34153;DHT22;20426;48.372;10.888;2023-02-28T01:10:13;-1.10;99.90
34153;DHT22;20426;48.372;10.888;2023-02-28T01:10:44;-1.10;99.90
34153;DHT22;20426;48.372;10.888;2023-02-28T01:11:16;-1.10;99.90
34153;DHT22;20426;48.372;10.888;2023-02-28T01:11:47;-1.10;99.90
34153;DHT22;20426;48.372;10.888;2023-02-28T01:12:18;-1.10;99.90
34153;DHT22;20426;48.372;10.888;2023-02-28T01:12:48;-1.20;99.90
34153;DHT22;20426;48.372;10.888;2023-02-28T01:13:20;-1.10;99.90
34153;DHT22;20426;48.372;10.888;2023-02-28T01:13:51;-1.10;99.90
34153;DHT22;20426;48.372;10.888;2023-02-28T01:14:22;-1.10;99.90
34153;DHT22;20426;48.372;10.888;2023-02-28T01:14:52;-1.10;99.90
34153;DHT22;20426;48.372;10.888;2023-02-28T01:15:23;-1.10;99.90
34153;DHT22;20426;48.372;10.888;2023-02-28T01:15:55;-1.10;99.90
34153;DHT22;20426;48.372;10.888;2023-02-28T01:16:27;-1.10;99.90
34153;DHT22;20426;48.372;10.888;2023-02-28T01:16:58;-1.10;99.90
34153;DHT22;20426;48.372;10.888;2023-02-28T01:17:29;-1.10;99.90
34153;DHT22;20426;48.372;10.888;2023-02-28T01:17:59;-1.10;99.90
34153;DHT22;20426;48.372;10.888;2023-02-28T01:18:30;-1.10;99.90
34153;DHT22;20426;48.372;10.888;2023-02-28T01:19:01;-1.10;99.90
34153;DHT22;20426;48.372;10.888;2023-02-28T01:19:32;-1.10;99.90
34153;DHT22;20426;48.372;10.888;2023-02-28T01:20:04;-1.10;99.90
34153;DHT22;20426;48.372;10.888;2023-02-28T01:20:37;-1.10;99.90
34153;DHT22;20426;48.372;10.888;2023-02-28T01:21:10;-1.10;99.90
34153;DHT22;20426;48.372;10.888;2023-02-28T01:21:41;-1.10;99.90
34153;DHT22;20426;48.372;10.888;2023-02-28T01:22:12;-1.10;99.90
34153;DHT22;20426;48.372;10.888;2023-02-28T01:22:42;-1.10;99.90
34153;DHT22;20426;48.372;10.888;2023-02-28T01:23:14;-1.10;99.90
34153;DHT22;20426;48.372;10.888;2023-02-28T01:23:45;-1.10;99.90
34153;DHT22;20426;48.372;10.888;2023-02-28T01:24:16;-1.10;99.90
34153;DHT22;20426;48.372;10.888;2023-02-28T01:24:46;-1.10;99.90
34153;DHT22;20426;48.372;10.888;2023-02-28T01:25:18;-1.10;99.90
34153;DHT22;20426;48.372;10.888;2023-02-28T01:25:52;-1.10;99.90
34153;DHT22;20426;48.372;10.888;2023-02-28T01:26:23;-1.10;99.90
34153;DHT22;20426;48.372;10.888;2023-02-28T01:26:54;-1.10;99.90
34153;DHT22;20426;48.372;10.888;2023-02-28T01:27:24;-1.10;99.90
34153;DHT22;20426;48.372;10.888;2023-02-28T01:27:56;-1.10;99.90
34153;DHT22;20426;48.372;10.888;2023-02-28T01:28:27;-1.10;99.90
34153;DHT22;20426;48.372;10.888;2023-02-28T01:29:00;-1.10;99.90
34153;DHT22;20426;48.372;10.888;2023-02-28T01:29:30;-1.10;99.90
34153;DHT22;20426;48.372;10.888;2023-02-28T01:30:02;-1.10;99.90
34153;DHT22;20426;48.372;10.888;2023-02-28T01:30:33;-1.10;99.90
34153;DHT22;20426;48.372;10.888;2023-02-28T01:31:04;-1.10;99.90
34153;DHT22;20426;48.372;10.888;2023-02-28T01:31:34;-1.10;99.90
34153;DHT22;20426;48.372;10.888;2023-02-28T01:32:05;-1.10;99.90
34153;DHT22;20426;48.372;10.888;2023-02-28T01:32:36;-1.10;99.90
34153;DHT22;20426;48.372;10.888;2023-02-28T01:33:07;-1.10;99.90
34153;DHT22;20426;48.372;10.888;2023-02-28T01:33:38;-1.10;99.90
34153;DHT22;20426;48.372;10.888;2023-02-28T01:34:09;-1.20;99.90
34153;DHT22;20426;48.372;10.888;2023-02-28T01:34:39;-1.10;99.90
34153;DHT22;20426;48.372;10.888;2023-02-28T01:35:10;-1.20;99.90
34153;DHT22;20426;48.372;10.888;2023-02-28T01:35:41;-1.10;99.90
34153;DHT22;20426;48.372;10.888;2023-02-28T01:36:14;-1.10;99.90
34153;DHT22;20426;48.372;10.888;2023-02-28T01:36:45;-1.10;99.90
34153;DHT22;20426;48.372;10.888;2023-02-28T01:37:16;-1.10;99.90
34153;DHT22;20426;48.372;10.888;2023-02-28T01:37:47;-1.10;99.90
34153;DHT22;20426;48.372;10.888;2023-02-28T01:38:17;-1.10;99.90
34153;DHT22;20426;48.372;10.888;2023-02-28T01:38:48;-1.10;99.90
34153;DHT22;20426;48.372;10.888;2023-02-28T01:39:19;-1.10;99.90
34153;DHT22;20426;48.372;10.888;2023-02-28T01:39:50;-1.20;99.90
34153;DHT22;20426;48.372;10.888;2023-02-28T01:40:20;-1.10;99.90
34153;DHT22;20426;48.372;10.888;2023-02-28T01:40:52;-1.10;99.90
34153;DHT22;20426;48.372;10.888;2023-02-28T01:41:29;-1.20;99.90
34153;DHT22;20426;48.372;10.888;2023-02-28T01:42:00;-1.20;99.90
34153;DHT22;20426;48.372;10.888;2023-02-28T01:42:31;-1.20;99.90
34153;DHT22;20426;48.372;10.888;2023-02-28T01:43:01;-1.20;99.90
34153;DHT22;20426;48.372;10.888;2023-02-28T01:44:00;-1.20;99.90
34153;DHT22;20426;48.372;10.888;2023-02-28T01:45:29;-1.20;99.90
34153;DHT22;20426;48.372;10.888;2023-02-28T01:46:00;-1.20;99.90
34153;DHT22;20426;48.372;10.888;2023-02-28T01:46:33;-1.20;99.90
34153;DHT22;20426;48.372;10.888;2023-02-28T01:47:04;-1.20;99.90
34153;DHT22;20426;48.372;10.888;2023-02-28T01:47:38;-1.20;99.90
34153;DHT22;20426;48.372;10.888;2023-02-28T01:48:10;-1.20;99.90
34153;DHT22;20426;48.372;10.888;2023-02-28T01:48:48;-1.20;99.90
34153;DHT22;20426;48.372;10.888;2023-02-28T01:49:20;-1.20;99.90
34153;DHT22;20426;48.372;10.888;2023-02-28T01:49:51;-1.20;99.90
34153;DHT22;20426;48.372;10.888;2023-02-28T01:50:26;-1.20;99.90
34153;DHT22;20426;48.372;10.888;2023-02-28T01:51:04;-1.20;99.90
34153;DHT22;20426;48.372;10.888;2023-02-28T01:51:42;-1.20;99.90
34153;DHT22;20426;48.372;10.888;2023-02-28T01:52:22;-1.20;99.90
34153;DHT22;20426;48.372;10.888;2023-02-28T01:52:55;-1.20;99.90
34153;DHT22;20426;48.372;10.888;2023-02-28T01:53:35;-1.20;99.90
34153;DHT22;20426;48.372;10.888;2023-02-28T01:54:11;-1.20;99.90
34153;DHT22;20426;48.372;10.888;2023-02-28T01:54:49;-1.20;99.90
34153;DHT22;20426;48.372;10.888;2023-02-28T01:55:22;-1.20;99.90
34153;DHT22;20426;48.372;10.888;2023-02-28T01:55:54;-1.20;99.90
34153;DHT22;20426;48.372;10.888;2023-02-28T01:56:29;-1.20;99.90
34153;DHT22;20426;48.372;10.888;2023-02-28T01:57:12;-1.20;99.90
34153;DHT22;20426;48.372;10.888;2023-02-28T01:57:50;-1.30;99.90
34153;DHT22;20426;48.372;10.888;2023-02-28T01:58:22;-1.30;99.90
34153;DHT22;20426;48.372;10.888;2023-02-28T01:58:53;-1.30;99.90
34153;DHT22;20426;48.372;10.888;2023-02-28T01:59:33;-1.30;99.90
34153;DHT22;20426;48.372;10.888;2023-02-28T02:00:08;-1.20;99.90
34153;DHT22;20426;48.372;10.888;2023-02-28T02:00:39;-1.20;99.90
34153;DHT22;20426;48.372;10.888;2023-02-28T02:01:13;-1.20;99.90
34153;DHT22;20426;48.372;10.888;2023-02-28T02:01:53;-1.20;99.90
34153;DHT22;20426;48.372;10.888;2023-02-28T02:02:25;-1.30;99.90
34153;DHT22;20426;48.372;10.888;2023-02-28T02:02:59;-1.20;99.90
34153;DHT22;20426;48.372;10.888;2023-02-28T02:03:31;-1.20;99.90
34153;DHT22;20426;48.372;10.888;2023-02-28T02:04:03;-1.20;99.90
34153;DHT22;20426;48.372;10.888;2023-02-28T02:04:40;-1.20;99.90
34153;DHT22;20426;48.372;10.888;2023-02-28T02:05:19;-1.20;99.90
34153;DHT22;20426;48.372;10.888;2023-02-28T02:05:50;-1.20;99.90
34153;DHT22;20426;48.372;10.888;2023-02-28T02:06:41;-1.20;99.90
34153;DHT22;20426;48.372;10.888;2023-02-28T02:07:13;-1.20;99.90
34153;DHT22;20426;48.372;10.888;2023-02-28T02:07:46;-1.20;99.90
34153;DHT22;20426;48.372;10.888;2023-02-28T02:08:23;-1.30;99.90
34153;DHT22;20426;48.372;10.888;2023-02-28T02:08:55;-1.20;99.90
34153;DHT22;20426;48.372;10.888;2023-02-28T02:09:26;-1.20;99.90
34153;DHT22;20426;48.372;10.888;2023-02-28T02:10:45;-1.30;99.90
34153;DHT22;20426;48.372;10.888;2023-02-28T02:11:20;-1.30;99.90
34153;DHT22;20426;48.372;10.888;2023-02-28T02:11:51;-1.30;99.90
34153;DHT22;20426;48.372;10.888;2023-02-28T02:13:48;-1.30;99.90
34153;DHT22;20426;48.372;10.888;2023-02-28T02:15:16;-1.30;99.90
34153;DHT22;20426;48.372;10.888;2023-02-28T02:17:44;-1.40;99.90
34153;DHT22;20426;48.372;10.888;2023-02-28T02:21:07;-1.40;99.90
34153;DHT22;20426;48.372;10.888;2023-02-28T02:22:49;-1.40;99.90
34153;DHT22;20426;48.372;10.888;2023-02-28T02:25:47;-1.50;99.90
34153;DHT22;20426;48.372;10.888;2023-02-28T02:31:29;-1.50;99.90
34153;DHT22;20426;48.372;10.888;2023-02-28T02:32:45;-1.50;99.90
34153;DHT22;20426;48.372;10.888;2023-02-28T02:36:12;-1.50;99.90
34153;DHT22;20426;48.372;10.888;2023-02-28T02:38:19;-1.50;99.90
34153;DHT22;20426;48.372;10.888;2023-02-28T02:39:36;-1.50;99.90
34153;DHT22;20426;48.372;10.888;2023-02-28T02:40:45;-1.50;99.90
34153;DHT22;20426;48.372;10.888;2023-02-28T02:41:24;-1.50;99.90
34153;DHT22;20426;48.372;10.888;2023-02-28T02:41:59;-1.50;99.90
34153;DHT22;20426;48.372;10.888;2023-02-28T02:42:50;-1.40;99.90
34153;DHT22;20426;48.372;10.888;2023-02-28T02:44:31;-1.40;99.90
34153;DHT22;20426;48.372;10.888;2023-02-28T02:45:12;-1.40;99.90
34153;DHT22;20426;48.372;10.888;2023-02-28T02:45:53;-1.40;99.90
34153;DHT22;20426;48.372;10.888;2023-02-28T02:46:38;-1.40;99.90
34153;DHT22;20426;48.372;10.888;2023-02-28T02:47:16;-1.40;99.90
34153;DHT22;20426;48.372;10.888;2023-02-28T02:47:48;-1.40;99.90
34153;DHT22;20426;48.372;10.888;2023-02-28T02:48:23;-1.40;99.90
34153;DHT22;20426;48.372;10.888;2023-02-28T02:48:57;-1.40;99.90
34153;DHT22;20426;48.372;10.888;2023-02-28T02:49:32;-1.50;99.90
34153;DHT22;20426;48.372;10.888;2023-02-28T02:50:07;-1.40;99.90
34153;DHT22;20426;48.372;10.888;2023-02-28T02:50:54;-1.40;99.90
34153;DHT22;20426;48.372;10.888;2023-02-28T02:51:27;-1.40;99.90
34153;DHT22;20426;48.372;10.888;2023-02-28T02:52:03;-1.40;99.90
34153;DHT22;20426;48.372;10.888;2023-02-28T02:52:39;-1.40;99.90
34153;DHT22;20426;48.372;10.888;2023-02-28T02:53:13;-1.40;99.90
34153;DHT22;20426;48.372;10.888;2023-02-28T02:54:12;-1.40;99.90
34153;DHT22;20426;48.372;10.888;2023-02-28T02:54:44;-1.40;99.90
34153;DHT22;20426;48.372;10.888;2023-02-28T02:55:17;-1.40;99.90
34153;DHT22;20426;48.372;10.888;2023-02-28T02:55:51;-1.40;99.90
34153;DHT22;20426;48.372;10.888;2023-02-28T02:56:27;-1.40;99.90
34153;DHT22;20426;48.372;10.888;2023-02-28T02:57:03;-1.40;99.90
34153;DHT22;20426;48.372;10.888;2023-02-28T02:58:00;-1.40;99.90
34153;DHT22;20426;48.372;10.888;2023-02-28T02:58:35;-1.40;99.90
34153;DHT22;20426;48.372;10.888;2023-02-28T02:59:15;-1.40;99.90
34153;DHT22;20426;48.372;10.888;2023-02-28T02:59:53;-1.40;99.90
34153;DHT22;20426;48.372;10.888;2023-02-28T03:00:31;-1.40;99.90
34153;DHT22;20426;48.372;10.888;2023-02-28T03:01:04;-1.30;99.90
34153;DHT22;20426;48.372;10.888;2023-02-28T03:01:36;-1.30;99.90
34153;DHT22;20426;48.372;10.888;2023-02-28T03:02:11;-1.30;99.90
34153;DHT22;20426;48.372;10.888;2023-02-28T03:02:43;-1.40;99.90
34153;DHT22;20426;48.372;10.888;2023-02-28T03:03:16;-1.40;99.90
34153;DHT22;20426;48.372;10.888;2023-02-28T03:03:48;-1.40;99.90
34153;DHT22;20426;48.372;10.888;2023-02-28T03:04:22;-1.40;99.90
34153;DHT22;20426;48.372;10.888;2023-02-28T03:04:56;-1.30;99.90
34153;DHT22;20426;48.372;10.888;2023-02-28T03:05:43;-1.30;99.90
34153;DHT22;20426;48.372;10.888;2023-02-28T03:06:16;-1.30;99.90
34153;DHT22;20426;48.372;10.888;2023-02-28T03:06:47;-1.40;99.90
34153;DHT22;20426;48.372;10.888;2023-02-28T03:07:17;-1.40;99.90
34153;DHT22;20426;48.372;10.888;2023-02-28T03:07:48;-1.30;99.90
34153;DHT22;20426;48.372;10.888;2023-02-28T03:08:19;-1.30;99.90
34153;DHT22;20426;48.372;10.888;2023-02-28T03:08:50;-1.40;99.90
34153;DHT22;20426;48.372;10.888;2023-02-28T03:09:25;-1.30;99.90
34153;DHT22;20426;48.372;10.888;2023-02-28T03:09:57;-1.30;99.90
34153;DHT22;20426;48.372;10.888;2023-02-28T03:10:35;-1.30;99.90
34153;DHT22;20426;48.372;10.888;2023-02-28T03:11:12;-1.30;99.90
34153;DHT22;20426;48.372;10.888;2023-02-28T03:11:45;-1.30;99.90
34153;DHT22;20426;48.372;10.888;2023-02-28T03:12:15;-1.30;99.90
34153;DHT22;20426;48.372;10.888;2023-02-28T03:12:53;-1.30;99.90
34153;DHT22;20426;48.372;10.888;2023-02-28T03:13:50;-1.40;99.90
34153;DHT22;20426;48.372;10.888;2023-02-28T03:15:31;-1.30;99.90
34153;DHT22;20426;48.372;10.888;2023-02-28T03:17:24;-1.30;99.90
34153;DHT22;20426;48.372;10.888;2023-02-28T03:18:21;-1.40;99.90
34153;DHT22;20426;48.372;10.888;2023-02-28T03:20:15;-1.40;99.90
34153;DHT22;20426;48.372;10.888;2023-02-28T03:21:02;-1.30;99.90
34153;DHT22;20426;48.372;10.888;2023-02-28T03:23:20;-1.40;99.90
34153;DHT22;20426;48.372;10.888;2023-02-28T03:24:15;-1.40;99.90
34153;DHT22;20426;48.372;10.888;2023-02-28T03:26:26;-1.40;99.90
34153;DHT22;20426;48.372;10.888;2023-02-28T03:27:29;-1.40;99.90
34153;DHT22;20426;48.372;10.888;2023-02-28T03:28:09;-1.40;99.90
34153;DHT22;20426;48.372;10.888;2023-02-28T03:29:03;-1.40;99.90
34153;DHT22;20426;48.372;10.888;2023-02-28T03:29:40;-1.40;99.90
34153;DHT22;20426;48.372;10.888;2023-02-28T03:30:18;-1.40;99.90
34153;DHT22;20426;48.372;10.888;2023-02-28T03:31:09;-1.40;99.90
34153;DHT22;20426;48.372;10.888;2023-02-28T03:32:26;-1.30;99.90
34153;DHT22;20426;48.372;10.888;2023-02-28T03:33:17;-1.30;99.90
34153;DHT22;20426;48.372;10.888;2023-02-28T03:34:41;-1.30;99.90
34153;DHT22;20426;48.372;10.888;2023-02-28T03:35:27;-1.30;99.90
34153;DHT22;20426;48.372;10.888;2023-02-28T03:36:16;-1.30;99.90
34153;DHT22;20426;48.372;10.888;2023-02-28T03:36:52;-1.30;99.90
34153;DHT22;20426;48.372;10.888;2023-02-28T03:37:25;-1.30;99.90
34153;DHT22;20426;48.372;10.888;2023-02-28T03:38:05;-1.30;99.90
34153;DHT22;20426;48.372;10.888;2023-02-28T03:38:49;-1.30;99.90
34153;DHT22;20426;48.372;10.888;2023-02-28T03:40:08;-1.30;99.90
34153;DHT22;20426;48.372;10.888;2023-02-28T03:40:24;-1.30;99.90
34153;DHT22;20426;48.372;10.888;2023-02-28T03:41:10;-1.40;99.90
34153;DHT22;20426;48.372;10.888;2023-02-28T03:41:52;-1.40;99.90
34153;DHT22;20426;48.372;10.888;2023-02-28T03:42:27;-1.40;99.90
34153;DHT22;20426;48.372;10.888;2023-02-28T03:43:03;-1.40;99.90
34153;DHT22;20426;48.372;10.888;2023-02-28T03:43:40;-1.40;99.90
34153;DHT22;20426;48.372;10.888;2023-02-28T03:44:20;-1.40;99.90
34153;DHT22;20426;48.372;10.888;2023-02-28T03:45:02;-1.40;99.90
34153;DHT22;20426;48.372;10.888;2023-02-28T03:45:36;-1.40;99.90
34153;DHT22;20426;48.372;10.888;2023-02-28T03:46:12;-1.40;99.90
34153;DHT22;20426;48.372;10.888;2023-02-28T03:46:48;-1.30;99.90
34153;DHT22;20426;48.372;10.888;2023-02-28T03:48:06;-1.40;99.90
34153;DHT22;20426;48.372;10.888;2023-02-28T03:49:02;-1.40;99.90
34153;DHT22;20426;48.372;10.888;2023-02-28T03:49:40;-1.40;99.90
34153;DHT22;20426;48.372;10.888;2023-02-28T03:50:24;-1.40;99.90
34153;DHT22;20426;48.372;10.888;2023-02-28T03:50:57;-1.30;99.90
34153;DHT22;20426;48.372;10.888;2023-02-28T03:51:29;-1.40;99.90
34153;DHT22;20426;48.372;10.888;2023-02-28T03:52:03;-1.40;99.90
34153;DHT22;20426;48.372;10.888;2023-02-28T03:52:41;-1.40;99.90
34153;DHT22;20426;48.372;10.888;2023-02-28T03:53:34;-1.40;99.90
34153;DHT22;20426;48.372;10.888;2023-02-28T03:54:16;-1.40;99.90
34153;DHT22;20426;48.372;10.888;2023-02-28T03:54:51;-1.40;99.90
34153;DHT22;20426;48.372;10.888;2023-02-28T03:55:23;-1.40;99.90
34153;DHT22;20426;48.372;10.888;2023-02-28T03:56:18;-1.40;99.90
34153;DHT22;20426;48.372;10.888;2023-02-28T03:57:06;-1.40;99.90
34153;DHT22;20426;48.372;10.888;2023-02-28T03:58:01;-1.40;99.90
34153;DHT22;20426;48.372;10.888;2023-02-28T03:58:48;-1.30;99.90
34153;DHT22;20426;48.372;10.888;2023-02-28T03:59:28;-1.30;99.90
34153;DHT22;20426;48.372;10.888;2023-02-28T04:00:06;-1.30;99.90
34153;DHT22;20426;48.372;10.888;2023-02-28T04:00:41;-1.30;99.90
34153;DHT22;20426;48.372;10.888;2023-02-28T04:01:32;-1.40;99.90
34153;DHT22;20426;48.372;10.888;2023-02-28T04:02:05;-1.30;99.90
34153;DHT22;20426;48.372;10.888;2023-02-28T04:02:36;-1.30;99.90
34153;DHT22;20426;48.372;10.888;2023-02-28T04:03:07;-1.30;99.90
34153;DHT22;20426;48.372;10.888;2023-02-28T04:03:38;-1.30;99.90
34153;DHT22;20426;48.372;10.888;2023-02-28T04:04:10;-1.30;99.90
34153;DHT22;20426;48.372;10.888;2023-02-28T04:04:41;-1.30;99.90
34153;DHT22;20426;48.372;10.888;2023-02-28T04:05:19;-1.30;99.90
34153;DHT22;20426;48.372;10.888;2023-02-28T04:05:53;-1.30;99.90
34153;DHT22;20426;48.372;10.888;2023-02-28T04:06:24;-1.30;99.90
34153;DHT22;20426;48.372;10.888;2023-02-28T04:07:04;-1.30;99.90